Soro, Denmark
Current Conditions -  °F | °C
As of 9:20 PM on Wednesday 26 Nov 2014 (Local Time) from EKRK Reporting Station
Broken Clouds Broken Clouds  
Wind Chill: 39°   Ceiling: 2100
Heat Index: 43°   Visibility: 6mi
Dew Point: 39°   Wind: 6mph
Humidity: 87%   Direction: 150°SSE
Pressure: 30.18"   Gusts: NA
Location:  55.43°N, 11.56°E
Report Text: EKRK 262020Z AUTO 15005KT 9999NDV BKN021/// BKN025///06/04 Q1022
Loading
Personal Weather Stations






























Interactive Weather Map New forecast layout! Learn more

10-Day Weather Forecast

Advertisements
Track Severe Weather on mobile